createdAt,value
2024-02-29T00:01:13.807Z,98537.09
2024-02-29T00:03:46.260Z,98518.94
2024-02-29T00:06:18.261Z,98526.41
2024-02-29T00:08:50.647Z,98522.50
2024-02-29T00:11:22.723Z,98522.22
2024-02-29T00:13:55.146Z,98523.06
2024-02-29T00:16:27.120Z,98518.09
2024-02-29T00:18:59.492Z,98514.25
2024-02-29T00:21:31.699Z,98512.44
2024-02-29T00:24:04.129Z,98513.78
2024-02-29T00:26:36.096Z,98513.09
2024-02-29T00:29:09.414Z,98506.56
2024-02-29T00:31:45.479Z,98506.28
2024-02-29T00:34:18.026Z,98498.56
2024-02-29T00:36:50.061Z,98492.38
2024-02-29T00:39:22.637Z,98513.28
2024-02-29T00:41:54.601Z,98511.16
2024-02-29T00:44:27.059Z,98522.22
2024-02-29T00:47:00.020Z,98508.63
2024-02-29T00:49:33.249Z,98518.56
2024-02-29T00:52:05.385Z,98520.50
2024-02-29T00:54:37.875Z,98519.53
2024-02-29T00:57:09.873Z,98517.06
2024-02-29T00:59:42.746Z,98522.28
2024-02-29T01:02:14.765Z,98512.47
2024-02-29T01:04:47.333Z,98516.66
2024-02-29T01:07:21.150Z,98520.31
2024-02-29T01:09:54.280Z,98525.66
2024-02-29T01:12:27.231Z,98517.78
2024-02-29T01:14:59.606Z,98505.44
2024-02-29T01:17:31.599Z,98517.56
2024-02-29T01:20:06.656Z,98515.38
2024-02-29T01:22:39.009Z,98507.63
2024-02-29T01:25:13.057Z,98509.50
2024-02-29T01:27:45.124Z,98499.31
2024-02-29T01:30:17.812Z,98501.41
2024-02-29T01:32:49.828Z,98491.66
2024-02-29T01:35:22.308Z,98489.78
2024-02-29T01:37:54.292Z,98491.66
2024-02-29T01:40:26.748Z,98487.13
2024-02-29T01:42:58.869Z,98481.31
2024-02-29T01:45:31.321Z,98477.75
2024-02-29T01:48:04.084Z,98470.50
2024-02-29T01:50:37.508Z,98478.56
2024-02-29T01:53:09.570Z,98471.94
2024-02-29T01:55:41.924Z,98465.63
2024-02-29T01:58:14.472Z,98459.50
2024-02-29T02:00:47.027Z,98448.84
2024-02-29T02:03:20.160Z,98458.53
2024-02-29T02:05:52.534Z,98459.75
2024-02-29T02:08:27.938Z,98460.75
2024-02-29T02:11:01.211Z,98459.50
2024-02-29T02:13:33.300Z,98456.31
2024-02-29T02:16:06.640Z,98458.22
2024-02-29T02:18:39.089Z,98464.03
2024-02-29T02:21:11.517Z,98466.03
2024-02-29T02:23:43.933Z,98460.25
2024-02-29T02:26:16.370Z,98450.91
2024-02-29T02:28:48.353Z,98446.97
2024-02-29T02:31:20.752Z,98440.81
2024-02-29T02:33:52.720Z,98442.91
2024-02-29T02:36:25.846Z,98433.19
2024-02-29T02:38:57.800Z,98429.72
2024-02-29T02:41:30.559Z,98433.63
2024-02-29T02:44:02.582Z,98422.31
2024-02-29T02:46:34.927Z,98425.38
2024-02-29T02:49:07.532Z,98417.97
2024-02-29T02:51:40.362Z,98420.56
2024-02-29T02:54:12.797Z,98414.34
2024-02-29T02:56:45.137Z,98409.38
2024-02-29T02:59:18.590Z,98415.19
2024-02-29T03:01:51.019Z,98414.88
2024-02-29T03:04:22.958Z,98410.03
2024-02-29T03:06:55.371Z,98401.94
2024-02-29T03:09:27.413Z,98404.09
2024-02-29T03:11:59.752Z,98406.38
2024-02-29T03:14:31.732Z,98396.13
2024-02-29T03:17:04.937Z,98393.34
2024-02-29T03:19:37.063Z,98392.47
2024-02-29T03:22:09.737Z,98396.88
2024-02-29T03:24:44.383Z,98400.66
2024-02-29T03:27:17.327Z,98400.09
2024-02-29T03:29:49.289Z,98401.16
2024-02-29T03:32:21.828Z,98399.16
2024-02-29T03:34:53.800Z,98391.31
2024-02-29T03:37:26.333Z,98395.16
2024-02-29T03:39:58.311Z,98385.75
2024-02-29T03:42:31.270Z,98385.19
2024-02-29T03:45:03.858Z,98392.19
2024-02-29T03:47:37.602Z,98388.25
2024-02-29T03:50:13.273Z,98392.44
2024-02-29T03:52:45.491Z,98388.06
2024-02-29T03:55:17.625Z,98388.53
2024-02-29T03:57:50.189Z,98381.53
2024-02-29T04:00:22.308Z,98384.94
2024-02-29T04:02:54.769Z,98381.19
2024-02-29T04:05:27.165Z,98373.81
2024-02-29T04:08:05.230Z,98378.69
2024-02-29T04:10:37.398Z,98384.84
2024-02-29T04:13:10.009Z,98372.63
2024-02-29T04:15:42.380Z,98374.66
2024-02-29T04:18:14.887Z,98374.19
2024-02-29T04:20:47.007Z,98372.56
2024-02-29T04:23:19.473Z,98360.97
2024-02-29T04:25:51.420Z,98355.72
2024-02-29T04:28:23.934Z,98370.50
2024-02-29T04:30:55.991Z,98369.59
2024-02-29T04:33:28.466Z,98366.69
2024-02-29T04:36:00.881Z,98375.44
2024-02-29T04:38:33.399Z,98369.56
2024-02-29T04:41:05.410Z,98362.47
2024-02-29T04:43:38.684Z,98347.09
2024-02-29T04:46:10.746Z,98345.25
2024-02-29T04:48:43.298Z,98344.50
2024-02-29T04:51:15.228Z,98340.25
2024-02-29T04:53:48.805Z,98339.13
2024-02-29T04:56:20.823Z,98336.09
2024-02-29T04:58:53.287Z,98326.72
2024-02-29T05:01:25.285Z,98328.25
2024-02-29T05:03:57.854Z,98323.25
2024-02-29T05:06:30.298Z,98327.56
2024-02-29T05:09:02.789Z,98319.72
2024-02-29T05:11:37.282Z,98314.03
2024-02-29T05:14:11.355Z,98318.44
2024-02-29T05:16:43.265Z,98305.69
2024-02-29T05:19:16.142Z,98306.38
2024-02-29T05:21:48.490Z,98290.97
2024-02-29T05:24:21.417Z,98300.06
2024-02-29T05:26:53.356Z,98301.97
2024-02-29T05:29:25.946Z,98293.88
2024-02-29T05:31:58.708Z,98295.97
2024-02-29T05:34:31.359Z,98296.19
2024-02-29T05:37:03.473Z,98296.03
2024-02-29T05:39:36.472Z,98286.28
2024-02-29T05:42:08.530Z,98290.31
2024-02-29T05:44:41.100Z,98284.31
2024-02-29T05:47:13.424Z,98281.41
2024-02-29T05:49:46.246Z,98274.94
2024-02-29T05:52:20.869Z,98270.94
2024-02-29T05:54:53.458Z,98268.78
2024-02-29T05:57:31.670Z,98267.50
2024-02-29T06:00:07.464Z,98266.63
2024-02-29T06:02:46.993Z,98271.00
2024-02-29T06:05:21.344Z,98261.94
2024-02-29T06:07:53.409Z,98249.94
2024-02-29T06:10:25.694Z,98258.91
2024-02-29T06:12:58.164Z,98249.75
2024-02-29T06:15:30.623Z,98253.91
2024-02-29T06:18:02.871Z,98246.44
2024-02-29T06:20:35.437Z,98247.81
2024-02-29T06:23:07.517Z,98246.91
2024-02-29T06:25:40.098Z,98246.19
2024-02-29T06:28:12.137Z,98242.06
2024-02-29T06:30:45.200Z,98248.50
2024-02-29T06:33:17.201Z,98256.41
2024-02-29T06:35:51.014Z,98249.84
2024-02-29T06:38:23.408Z,98249.50
2024-02-29T06:40:56.276Z,98233.41
2024-02-29T06:43:30.654Z,98234.44
2024-02-29T06:46:06.924Z,98240.63
2024-02-29T06:48:40.248Z,98234.28
2024-02-29T06:51:12.829Z,98238.75
2024-02-29T06:53:44.809Z,98235.66
2024-02-29T06:56:17.543Z,98226.56
2024-02-29T06:58:50.175Z,98235.28
2024-02-29T07:01:24.395Z,98218.44
2024-02-29T07:03:57.683Z,98229.06
2024-02-29T07:06:30.240Z,98228.00
2024-02-29T07:09:02.516Z,98219.59
2024-02-29T07:11:35.157Z,98216.78
2024-02-29T07:14:07.397Z,98211.63
2024-02-29T07:16:40.036Z,98219.22
2024-02-29T07:19:12.175Z,98221.94
2024-02-29T07:21:45.112Z,98216.00
2024-02-29T07:24:17.123Z,98209.75
2024-02-29T07:26:56.111Z,98198.31
2024-02-29T07:29:28.510Z,98216.13
2024-02-29T07:32:01.026Z,98215.81
2024-02-29T07:34:35.269Z,98216.47
2024-02-29T07:37:08.003Z,98224.22
2024-02-29T07:39:40.015Z,98219.03
2024-02-29T07:42:12.533Z,98224.72
2024-02-29T07:44:44.543Z,98215.91
2024-02-29T07:47:17.145Z,98219.75
2024-02-29T07:49:49.164Z,98214.47
2024-02-29T07:52:22.163Z,98236.38
2024-02-29T07:54:54.695Z,98236.38
2024-02-29T07:57:27.634Z,98234.41
2024-02-29T07:59:59.879Z,98222.09
2024-02-29T08:02:35.508Z,98231.56
2024-02-29T08:05:08.033Z,98228.47
2024-02-29T08:07:41.344Z,98229.66
2024-02-29T08:10:17.025Z,98216.97
2024-02-29T08:12:49.819Z,98213.25
2024-02-29T08:15:21.990Z,98224.06
2024-02-29T08:17:54.616Z,98215.00
2024-02-29T08:20:27.148Z,98226.91
2024-02-29T08:22:59.672Z,98216.13
2024-02-29T08:25:31.944Z,98207.91
2024-02-29T08:28:06.896Z,98212.84
2024-02-29T08:30:39.335Z,98215.63
2024-02-29T08:33:12.092Z,98204.38
2024-02-29T08:35:44.139Z,98199.16
2024-02-29T08:38:17.771Z,98194.66
2024-02-29T08:40:50.353Z,98197.91
2024-02-29T08:43:23.103Z,98195.59
2024-02-29T08:45:55.123Z,98201.16
2024-02-29T08:48:28.514Z,98196.78
2024-02-29T08:51:00.475Z,98186.63
2024-02-29T08:53:33.913Z,98183.78
2024-02-29T08:56:05.997Z,98178.69
2024-02-29T08:58:38.893Z,98186.75
2024-02-29T09:01:11.221Z,98178.53
2024-02-29T09:03:44.596Z,98169.34
2024-02-29T09:06:17.566Z,98164.09
2024-02-29T09:08:50.124Z,98164.31
2024-02-29T09:11:22.533Z,98162.31
2024-02-29T09:13:58.000Z,98165.06
2024-02-29T09:16:30.860Z,98138.06
2024-02-29T09:19:06.134Z,98148.34
2024-02-29T09:21:38.260Z,98142.75
2024-02-29T09:24:16.053Z,98142.56
2024-02-29T09:26:48.546Z,98145.03
2024-02-29T09:29:22.888Z,98129.31
2024-02-29T09:31:56.212Z,98131.06
2024-02-29T09:34:29.891Z,98139.19
2024-02-29T09:37:02.686Z,98134.28
2024-02-29T09:39:35.681Z,98132.13
2024-02-29T09:42:13.931Z,98128.88
2024-02-29T09:44:48.569Z,98119.78
2024-02-29T09:47:22.103Z,98110.88
2024-02-29T09:49:59.579Z,98122.66
2024-02-29T09:52:39.659Z,98102.88
2024-02-29T09:55:15.401Z,98114.44
2024-02-29T09:57:47.692Z,98109.69
2024-02-29T10:00:21.911Z,98092.69
2024-02-29T10:02:56.057Z,98113.25
2024-02-29T10:05:28.773Z,98096.63
2024-02-29T10:08:03.294Z,98094.13
2024-02-29T10:10:38.528Z,98093.34
2024-02-29T10:13:10.766Z,98081.72
2024-02-29T10:15:45.683Z,98081.50
2024-02-29T10:18:17.826Z,98079.50
2024-02-29T10:20:50.526Z,98061.75
2024-02-29T10:23:22.681Z,98059.72
2024-02-29T10:25:55.334Z,98062.94
2024-02-29T10:28:28.754Z,98052.84
2024-02-29T10:31:02.642Z,98057.44
2024-02-29T10:33:39.905Z,98049.63
2024-02-29T10:36:13.041Z,98053.56
2024-02-29T10:38:45.172Z,98059.91
2024-02-29T10:41:19.734Z,98043.16
2024-02-29T10:43:52.762Z,98039.94
2024-02-29T10:46:26.264Z,98040.16
2024-02-29T10:49:08.284Z,98043.53
2024-02-29T10:51:50.036Z,98029.03
2024-02-29T10:54:33.843Z,98027.50
2024-02-29T10:57:16.727Z,98020.69
2024-02-29T10:59:55.237Z,98029.97
2024-02-29T11:02:30.534Z,98018.00
2024-02-29T11:05:04.407Z,98026.78
2024-02-29T11:07:37.665Z,98023.00
2024-02-29T11:10:10.574Z,98002.59
2024-02-29T11:12:45.807Z,97996.84
2024-02-29T11:15:27.065Z,97997.28
2024-02-29T11:18:00.785Z,97984.56
2024-02-29T11:20:35.010Z,97997.38
2024-02-29T11:23:11.305Z,97990.69
2024-02-29T11:25:44.386Z,97983.00
2024-02-29T11:28:38.077Z,97983.34
2024-02-29T11:31:48.046Z,97954.63
2024-02-29T11:34:30.036Z,97942.22
2024-02-29T11:37:07.265Z,97946.88
2024-02-29T11:39:40.197Z,97958.69
2024-02-29T11:42:15.412Z,97937.78
2024-02-29T11:45:35.642Z,97930.78
2024-02-29T11:48:34.290Z,97915.50
2024-02-29T11:51:08.941Z,97933.50
2024-02-29T11:53:41.797Z,97929.63
2024-02-29T11:56:16.595Z,97932.44
2024-02-29T11:58:51.139Z,97929.28
2024-02-29T12:01:25.020Z,97909.88
2024-02-29T12:03:57.768Z,97921.03
2024-02-29T12:07:45.694Z,97908.50
2024-02-29T12:10:15.335Z,97891.03
2024-02-29T12:12:48.694Z,97902.56
2024-02-29T12:15:21.410Z,97889.22
2024-02-29T12:17:54.033Z,97889.41
2024-02-29T12:20:26.901Z,97881.34
2024-02-29T12:23:00.213Z,97893.34
2024-02-29T12:25:32.554Z,97879.34
2024-02-29T12:28:09.129Z,97864.06
2024-02-29T12:30:50.031Z,97871.72
2024-02-29T12:33:27.311Z,97874.59
2024-02-29T12:36:01.931Z,97858.22
2024-02-29T12:38:36.274Z,97850.16
2024-02-29T12:41:08.702Z,97845.91
2024-02-29T12:43:50.386Z,97843.94
2024-02-29T12:46:28.760Z,97842.72
2024-02-29T12:49:05.223Z,97838.41
2024-02-29T12:51:37.823Z,97813.13
2024-02-29T12:54:11.900Z,97820.16
2024-02-29T12:56:47.763Z,97810.13
2024-02-29T12:59:22.937Z,97812.03
2024-02-29T13:02:01.644Z,97791.91
2024-02-29T13:15:11.604Z,97764.53
2024-02-29T13:17:44.539Z,97773.25
2024-02-29T13:29:23.599Z,97760.13
2024-02-29T13:32:00.560Z,97730.44
2024-02-29T13:34:34.517Z,97729.19
2024-02-29T13:37:09.456Z,97735.59
2024-02-29T13:39:47.842Z,97727.53
2024-02-29T13:42:33.542Z,97722.47
2024-02-29T13:45:16.255Z,97708.84
2024-02-29T13:47:59.426Z,97697.13
2024-02-29T13:50:35.730Z,97718.63
2024-02-29T13:53:24.557Z,97705.09
2024-02-29T13:55:59.740Z,97701.06
2024-02-29T13:58:35.219Z,97691.72
2024-02-29T14:01:15.115Z,97669.06
2024-02-29T14:03:49.902Z,97696.75
2024-02-29T14:06:23.315Z,97687.47
2024-02-29T14:09:01.493Z,97684.66
2024-02-29T14:16:13.178Z,97668.47
2024-02-29T14:19:39.133Z,97643.06
2024-02-29T14:22:22.422Z,97663.25
2024-02-29T14:24:59.965Z,97659.50
2024-02-29T14:27:35.710Z,97652.50
2024-02-29T14:30:11.416Z,97638.16
2024-02-29T14:32:46.864Z,97645.25
2024-02-29T14:35:19.955Z,97634.16
2024-02-29T14:38:07.440Z,97633.38
2024-02-29T14:41:36.617Z,97633.72
2024-02-29T14:44:09.248Z,97623.50
2024-02-29T14:46:51.856Z,97619.97
2024-02-29T14:49:52.124Z,97598.81
2024-02-29T14:55:47.372Z,97611.41
2024-02-29T14:59:47.068Z,97574.44
2024-02-29T15:03:25.947Z,97598.28
2024-02-29T15:06:31.076Z,97593.03
2024-02-29T15:09:06.825Z,97591.59
2024-02-29T15:11:46.693Z,97556.72
2024-02-29T15:20:07.460Z,97562.41
2024-02-29T15:22:41.626Z,97563.97
2024-02-29T15:25:17.430Z,97570.56
2024-02-29T15:27:55.152Z,97564.63
2024-02-29T15:30:28.614Z,97560.28
2024-02-29T15:33:05.091Z,97560.94
2024-02-29T15:35:38.372Z,97554.59
2024-02-29T15:38:10.984Z,97555.34
2024-02-29T15:40:47.852Z,97546.84
2024-02-29T15:43:21.677Z,97538.78
2024-02-29T15:45:54.723Z,97545.84
2024-02-29T15:48:27.611Z,97545.66
2024-02-29T15:51:01.046Z,97538.84
2024-02-29T15:53:33.309Z,97529.47
2024-02-29T15:56:07.449Z,97525.94
2024-02-29T15:58:39.656Z,97526.56
2024-02-29T16:01:12.454Z,97530.56
2024-02-29T16:03:44.707Z,97511.97
2024-02-29T16:06:20.912Z,97521.28
2024-02-29T16:09:04.124Z,97512.47
2024-02-29T16:11:36.933Z,97514.63
2024-02-29T16:14:09.553Z,97518.44
2024-02-29T16:19:30.692Z,97500.44
2024-02-29T16:22:03.705Z,97494.72
2024-02-29T16:27:25.660Z,97510.06
2024-02-29T16:32:50.660Z,97488.31
2024-02-29T16:35:23.865Z,97500.31
2024-02-29T16:37:59.516Z,97499.44
2024-02-29T16:40:40.182Z,97495.97
2024-02-29T16:43:15.970Z,97477.63
2024-02-29T16:45:49.785Z,97482.47
2024-02-29T16:48:23.357Z,97494.94
2024-02-29T16:50:57.576Z,97494.09
2024-02-29T16:53:30.234Z,97477.66
2024-02-29T16:56:03.046Z,97468.41
2024-02-29T17:01:24.394Z,97459.22
2024-02-29T17:04:01.618Z,97475.50
2024-02-29T17:06:35.671Z,97488.81
2024-02-29T17:09:09.793Z,97489.44
2024-02-29T17:11:47.566Z,97489.25
2024-02-29T17:14:23.436Z,97490.94
2024-02-29T17:16:55.791Z,97475.53
2024-02-29T17:19:29.395Z,97487.16
2024-02-29T17:22:02.293Z,97479.91
2024-02-29T17:24:39.050Z,97454.22
2024-02-29T17:27:11.272Z,97458.00
2024-02-29T17:29:44.933Z,97469.75
2024-02-29T17:32:22.103Z,97462.75
2024-02-29T17:34:55.585Z,97463.09
2024-02-29T17:37:30.369Z,97464.75
2024-02-29T17:40:03.858Z,97469.53
2024-02-29T17:42:36.313Z,97476.56
2024-02-29T17:45:11.083Z,97456.34
2024-02-29T17:47:43.660Z,97471.13
2024-02-29T17:50:21.000Z,97455.03
2024-02-29T17:52:56.595Z,97446.09
2024-02-29T17:55:30.097Z,97433.03
2024-02-29T17:58:03.085Z,97453.81
2024-02-29T18:00:37.655Z,97443.72
2024-02-29T18:03:20.028Z,97429.47
2024-02-29T18:06:18.588Z,97441.28
2024-02-29T18:08:51.034Z,97438.75
2024-02-29T18:11:27.031Z,97439.00
2024-02-29T18:14:00.725Z,97444.84
2024-02-29T18:16:34.709Z,97443.28
2024-02-29T18:19:07.586Z,97439.25
2024-02-29T18:21:46.539Z,97436.81
2024-02-29T18:24:19.363Z,97434.66
2024-02-29T18:26:51.558Z,97421.19
2024-02-29T18:29:26.518Z,97422.88
2024-02-29T18:31:58.909Z,97439.00
2024-02-29T18:34:31.182Z,97421.25
2024-02-29T18:37:04.371Z,97430.03
2024-02-29T18:39:37.807Z,97426.97
2024-02-29T18:42:10.390Z,97423.41
2024-02-29T18:44:43.132Z,97419.50
2024-02-29T18:47:19.676Z,97434.81
2024-02-29T18:49:53.094Z,97430.78
2024-02-29T18:52:33.482Z,97432.63
2024-02-29T18:55:09.237Z,97442.59
2024-02-29T18:57:41.913Z,97449.25
2024-02-29T19:00:16.586Z,97436.56
2024-02-29T19:02:49.504Z,97449.38
2024-02-29T19:05:22.057Z,97417.66
2024-02-29T19:07:54.569Z,97434.63
2024-02-29T19:10:27.165Z,97422.16
2024-02-29T19:12:59.212Z,97431.03
2024-02-29T19:15:32.155Z,97434.63
2024-02-29T19:18:04.656Z,97404.91
2024-02-29T19:20:37.199Z,97410.59
2024-02-29T19:23:10.692Z,97414.53
2024-02-29T19:26:04.249Z,97417.34
2024-02-29T19:28:39.029Z,97423.66
2024-02-29T19:31:15.683Z,97416.16
2024-02-29T19:33:48.482Z,97418.03
2024-02-29T19:36:22.314Z,97402.47
2024-02-29T19:38:57.736Z,97396.22
2024-02-29T19:41:30.588Z,97411.50
2024-02-29T19:44:02.816Z,97400.22
2024-02-29T19:46:42.600Z,97419.91
2024-02-29T19:49:14.724Z,97402.84
2024-02-29T19:51:47.929Z,97419.69
2024-02-29T19:54:20.031Z,97409.19
2024-02-29T19:56:52.530Z,97408.34
2024-02-29T19:59:24.514Z,97392.25
2024-02-29T20:01:56.953Z,97397.88
2024-02-29T20:04:30.789Z,97394.72
2024-02-29T20:07:03.174Z,97389.13
2024-02-29T20:09:35.648Z,97371.53
2024-02-29T20:12:08.575Z,97376.88
2024-02-29T20:14:42.550Z,97386.06
2024-02-29T20:17:15.841Z,97397.72
2024-02-29T20:19:48.359Z,97381.59
2024-02-29T20:22:21.099Z,97378.84
2024-02-29T20:24:54.617Z,97393.22
2024-02-29T20:27:27.433Z,97373.63
2024-02-29T20:29:59.481Z,97381.66
2024-02-29T20:32:32.248Z,97390.91
2024-02-29T20:35:04.871Z,97394.06
2024-02-29T20:37:37.516Z,97371.78
2024-02-29T20:40:10.310Z,97368.66
2024-02-29T20:42:43.088Z,97371.53
2024-02-29T20:45:17.561Z,97371.19
2024-02-29T20:47:50.567Z,97363.81
2024-02-29T20:50:23.498Z,97353.44
2024-02-29T20:52:56.530Z,97374.66
2024-02-29T20:55:35.931Z,97352.84
2024-02-29T20:58:11.842Z,97361.59
2024-02-29T21:00:44.367Z,97363.28
2024-02-29T21:03:17.386Z,97361.31
2024-02-29T21:05:49.520Z,97354.94
2024-02-29T21:08:22.190Z,97352.75
2024-02-29T21:10:54.254Z,97351.38
2024-02-29T21:13:28.893Z,97352.25
2024-02-29T21:16:01.709Z,97362.84
2024-02-29T21:18:34.939Z,97366.31
2024-02-29T21:21:06.942Z,97344.56
2024-02-29T21:23:40.102Z,97340.31
2024-02-29T21:26:12.114Z,97341.56
2024-02-29T21:28:47.856Z,97357.09
2024-02-29T21:31:20.134Z,97339.78
2024-02-29T21:33:57.648Z,97363.09
2024-02-29T21:36:30.152Z,97363.41
2024-02-29T21:39:03.354Z,97359.56
2024-02-29T21:41:36.766Z,97359.56
2024-02-29T21:44:10.997Z,97368.94
2024-02-29T21:46:43.470Z,97379.56
2024-02-29T21:49:17.849Z,97366.91
2024-02-29T21:51:50.078Z,97363.84
2024-02-29T21:54:25.764Z,97367.69
2024-02-29T21:56:58.223Z,97365.25
2024-02-29T21:59:30.850Z,97372.72
2024-02-29T22:02:03.545Z,97365.06
2024-02-29T22:04:36.546Z,97378.13
2024-02-29T22:07:08.629Z,97375.56
2024-02-29T22:09:41.138Z,97364.50
2024-02-29T22:12:13.175Z,97363.44
2024-02-29T22:14:45.652Z,97369.41
2024-02-29T22:17:17.606Z,97369.91
2024-02-29T22:19:50.316Z,97359.34
2024-02-29T22:22:22.778Z,97372.38
2024-02-29T22:24:56.143Z,97365.28
2024-02-29T22:27:28.574Z,97362.47
2024-02-29T22:30:01.204Z,97348.28
2024-02-29T22:32:33.848Z,97354.28
2024-02-29T22:35:09.203Z,97368.94
2024-02-29T22:37:41.322Z,97360.47
2024-02-29T22:40:14.547Z,97336.69
2024-02-29T22:42:46.727Z,97340.66
2024-02-29T22:45:19.729Z,97363.47
2024-02-29T22:47:51.779Z,97359.84
2024-02-29T22:50:24.419Z,97342.94
2024-02-29T22:52:56.387Z,97360.56
2024-02-29T22:55:29.201Z,97343.06
2024-02-29T22:58:01.552Z,97345.34
2024-02-29T23:00:35.216Z,97356.97
2024-02-29T23:03:08.041Z,97356.66
2024-02-29T23:05:41.195Z,97349.06
2024-02-29T23:08:13.180Z,97350.31
2024-02-29T23:10:45.684Z,97336.03
2024-02-29T23:13:17.856Z,97337.44
2024-02-29T23:15:51.006Z,97334.63
2024-02-29T23:18:23.048Z,97335.28
2024-02-29T23:20:57.841Z,97343.53
2024-02-29T23:23:29.842Z,97332.75
2024-02-29T23:26:02.629Z,97340.41
2024-02-29T23:28:34.697Z,97329.03
2024-02-29T23:31:07.484Z,97329.69
2024-02-29T23:33:39.606Z,97335.94
2024-02-29T23:36:12.094Z,97343.88
2024-02-29T23:38:44.026Z,97328.31
2024-02-29T23:41:16.508Z,97341.72
2024-02-29T23:43:48.528Z,97355.09
2024-02-29T23:46:21.068Z,97347.91
2024-02-29T23:48:53.094Z,97358.19
2024-02-29T23:51:25.645Z,97363.97
2024-02-29T23:53:57.600Z,97363.59
2024-02-29T23:56:30.070Z,97363.69
2024-02-29T23:59:02.069Z,97364.06
